sensor_id;sensor_type;location;lat;lon;timestamp;P1;durP1;ratioP1;P2;durP2;ratioP2
80936;SDS011;70395;51.382;7.074;2023-12-20T00:01:50;15.17;;;12.60;;
80936;SDS011;70395;51.382;7.074;2023-12-20T00:04:15;16.17;;;12.60;;
80936;SDS011;70395;51.382;7.074;2023-12-20T00:06:41;15.13;;;12.43;;
80936;SDS011;70395;51.382;7.074;2023-12-20T00:09:07;16.43;;;11.27;;
80936;SDS011;70395;51.382;7.074;2023-12-20T00:11:33;16.60;;;12.70;;
80936;SDS011;70395;51.382;7.074;2023-12-20T00:13:58;18.23;;;13.83;;
80936;SDS011;70395;51.382;7.074;2023-12-20T00:16:24;16.63;;;13.23;;
80936;SDS011;70395;51.382;7.074;2023-12-20T00:18:50;16.17;;;11.67;;
80936;SDS011;70395;51.382;7.074;2023-12-20T00:21:16;14.30;;;12.10;;
80936;SDS011;70395;51.382;7.074;2023-12-20T00:23:42;19.43;;;12.67;;
80936;SDS011;70395;51.382;7.074;2023-12-20T00:26:08;18.50;;;13.27;;
80936;SDS011;70395;51.382;7.074;2023-12-20T00:28:34;15.40;;;11.07;;
80936;SDS011;70395;51.382;7.074;2023-12-20T00:31:00;16.00;;;11.20;;
80936;SDS011;70395;51.382;7.074;2023-12-20T00:33:26;12.50;;;10.80;;
80936;SDS011;70395;51.382;7.074;2023-12-20T00:35:51;17.17;;;10.93;;
80936;SDS011;70395;51.382;7.074;2023-12-20T00:38:17;16.17;;;11.33;;
80936;SDS011;70395;51.382;7.074;2023-12-20T00:40:43;16.67;;;11.33;;
80936;SDS011;70395;51.382;7.074;2023-12-20T00:43:09;16.60;;;10.73;;
80936;SDS011;70395;51.382;7.074;2023-12-20T00:45:34;16.33;;;10.53;;
80936;SDS011;70395;51.382;7.074;2023-12-20T00:48:00;12.20;;;9.90;;
80936;SDS011;70395;51.382;7.074;2023-12-20T00:50:26;14.47;;;10.10;;
80936;SDS011;70395;51.382;7.074;2023-12-20T00:52:52;18.70;;;10.53;;
80936;SDS011;70395;51.382;7.074;2023-12-20T00:55:19;16.10;;;9.20;;
80936;SDS011;70395;51.382;7.074;2023-12-20T00:57:45;16.27;;;10.97;;
80936;SDS011;70395;51.382;7.074;2023-12-20T01:00:11;17.70;;;10.50;;
80936;SDS011;70395;51.382;7.074;2023-12-20T01:02:38;13.73;;;9.43;;
80936;SDS011;70395;51.382;7.074;2023-12-20T01:05:04;12.80;;;8.73;;
80936;SDS011;70395;51.382;7.074;2023-12-20T01:07:32;11.70;;;7.60;;
80936;SDS011;70395;51.382;7.074;2023-12-20T01:09:58;9.73;;;7.10;;
80936;SDS011;70395;51.382;7.074;2023-12-20T01:12:24;10.03;;;7.70;;
80936;SDS011;70395;51.382;7.074;2023-12-20T01:14:49;12.97;;;7.73;;
80936;SDS011;70395;51.382;7.074;2023-12-20T01:17:15;13.70;;;7.60;;
80936;SDS011;70395;51.382;7.074;2023-12-20T01:19:41;10.33;;;6.80;;
80936;SDS011;70395;51.382;7.074;2023-12-20T01:22:07;10.60;;;6.67;;
80936;SDS011;70395;51.382;7.074;2023-12-20T01:24:32;13.50;;;7.97;;
80936;SDS011;70395;51.382;7.074;2023-12-20T01:26:58;14.00;;;6.70;;
80936;SDS011;70395;51.382;7.074;2023-12-20T01:29:24;13.23;;;7.57;;
80936;SDS011;70395;51.382;7.074;2023-12-20T01:31:50;9.90;;;7.10;;
80936;SDS011;70395;51.382;7.074;2023-12-20T01:34:16;12.13;;;7.53;;
80936;SDS011;70395;51.382;7.074;2023-12-20T01:36:42;12.87;;;8.53;;
80936;SDS011;70395;51.382;7.074;2023-12-20T01:39:08;12.83;;;8.97;;
80936;SDS011;70395;51.382;7.074;2023-12-20T01:41:34;12.80;;;9.30;;
80936;SDS011;70395;51.382;7.074;2023-12-20T01:44:00;17.57;;;9.17;;
80936;SDS011;70395;51.382;7.074;2023-12-20T01:46:25;16.60;;;8.93;;
80936;SDS011;70395;51.382;7.074;2023-12-20T01:48:52;14.73;;;9.10;;
80936;SDS011;70395;51.382;7.074;2023-12-20T01:51:18;13.00;;;9.50;;
80936;SDS011;70395;51.382;7.074;2023-12-20T01:53:45;13.60;;;9.07;;
80936;SDS011;70395;51.382;7.074;2023-12-20T01:56:13;12.00;;;8.30;;
80936;SDS011;70395;51.382;7.074;2023-12-20T01:58:43;13.17;;;8.70;;
80936;SDS011;70395;51.382;7.074;2023-12-20T02:01:11;12.70;;;9.23;;
80936;SDS011;70395;51.382;7.074;2023-12-20T02:03:38;15.10;;;10.03;;
80936;SDS011;70395;51.382;7.074;2023-12-20T02:06:07;16.27;;;9.10;;
80936;SDS011;70395;51.382;7.074;2023-12-20T02:08:34;13.80;;;8.47;;
80936;SDS011;70395;51.382;7.074;2023-12-20T02:11:01;17.07;;;8.70;;
80936;SDS011;70395;51.382;7.074;2023-12-20T02:13:27;16.00;;;8.30;;
80936;SDS011;70395;51.382;7.074;2023-12-20T02:15:53;14.60;;;8.50;;
80936;SDS011;70395;51.382;7.074;2023-12-20T02:18:20;13.93;;;9.10;;
80936;SDS011;70395;51.382;7.074;2023-12-20T02:20:46;13.27;;;7.50;;
80936;SDS011;70395;51.382;7.074;2023-12-20T02:23:12;20.40;;;8.67;;
80936;SDS011;70395;51.382;7.074;2023-12-20T02:25:37;18.07;;;9.20;;
80936;SDS011;70395;51.382;7.074;2023-12-20T02:28:03;14.47;;;8.60;;
80936;SDS011;70395;51.382;7.074;2023-12-20T02:30:30;14.17;;;6.80;;
80936;SDS011;70395;51.382;7.074;2023-12-20T02:32:56;14.37;;;7.13;;
80936;SDS011;70395;51.382;7.074;2023-12-20T02:35:25;12.97;;;8.07;;
80936;SDS011;70395;51.382;7.074;2023-12-20T02:37:51;20.67;;;7.70;;
80936;SDS011;70395;51.382;7.074;2023-12-20T02:40:17;16.33;;;8.53;;
80936;SDS011;70395;51.382;7.074;2023-12-20T02:42:43;11.90;;;7.50;;
80936;SDS011;70395;51.382;7.074;2023-12-20T02:45:09;13.77;;;7.73;;
80936;SDS011;70395;51.382;7.074;2023-12-20T02:47:34;14.10;;;7.33;;
80936;SDS011;70395;51.382;7.074;2023-12-20T02:50:00;14.20;;;7.43;;
80936;SDS011;70395;51.382;7.074;2023-12-20T02:52:27;14.20;;;7.20;;
80936;SDS011;70395;51.382;7.074;2023-12-20T02:54:54;12.00;;;7.00;;
80936;SDS011;70395;51.382;7.074;2023-12-20T02:57:20;11.80;;;7.83;;
80936;SDS011;70395;51.382;7.074;2023-12-20T02:59:46;18.07;;;8.10;;
80936;SDS011;70395;51.382;7.074;2023-12-20T03:02:12;14.30;;;8.10;;
80936;SDS011;70395;51.382;7.074;2023-12-20T03:04:37;16.50;;;8.47;;
80936;SDS011;70395;51.382;7.074;2023-12-20T03:07:03;15.40;;;8.30;;
80936;SDS011;70395;51.382;7.074;2023-12-20T03:09:29;15.27;;;8.00;;
80936;SDS011;70395;51.382;7.074;2023-12-20T03:11:55;19.77;;;8.50;;
80936;SDS011;70395;51.382;7.074;2023-12-20T03:14:21;16.17;;;8.40;;
80936;SDS011;70395;51.382;7.074;2023-12-20T03:16:49;13.37;;;7.80;;
80936;SDS011;70395;51.382;7.074;2023-12-20T03:19:16;11.87;;;7.77;;
80936;SDS011;70395;51.382;7.074;2023-12-20T03:21:44;15.37;;;8.70;;
80936;SDS011;70395;51.382;7.074;2023-12-20T03:24:10;22.97;;;8.93;;
80936;SDS011;70395;51.382;7.074;2023-12-20T03:26:36;15.50;;;9.40;;
80936;SDS011;70395;51.382;7.074;2023-12-20T03:29:02;19.83;;;8.70;;
80936;SDS011;70395;51.382;7.074;2023-12-20T03:31:28;14.93;;;8.77;;
80936;SDS011;70395;51.382;7.074;2023-12-20T03:33:53;20.43;;;11.77;;
80936;SDS011;70395;51.382;7.074;2023-12-20T03:36:20;19.97;;;10.30;;
80936;SDS011;70395;51.382;7.074;2023-12-20T03:38:46;15.40;;;9.23;;
80936;SDS011;70395;51.382;7.074;2023-12-20T03:41:11;17.03;;;9.00;;
80936;SDS011;70395;51.382;7.074;2023-12-20T03:43:38;12.53;;;8.60;;
80936;SDS011;70395;51.382;7.074;2023-12-20T03:46:04;12.27;;;8.37;;
80936;SDS011;70395;51.382;7.074;2023-12-20T03:48:30;11.33;;;7.93;;
80936;SDS011;70395;51.382;7.074;2023-12-20T03:50:56;14.17;;;8.43;;
80936;SDS011;70395;51.382;7.074;2023-12-20T03:53:22;20.43;;;8.40;;
80936;SDS011;70395;51.382;7.074;2023-12-20T03:55:48;19.17;;;7.87;;
80936;SDS011;70395;51.382;7.074;2023-12-20T03:58:14;18.33;;;8.20;;
80936;SDS011;70395;51.382;7.074;2023-12-20T04:00:40;20.07;;;8.60;;
80936;SDS011;70395;51.382;7.074;2023-12-20T04:03:06;16.70;;;7.63;;
80936;SDS011;70395;51.382;7.074;2023-12-20T04:05:33;15.60;;;6.70;;
80936;SDS011;70395;51.382;7.074;2023-12-20T04:07:59;10.83;;;7.17;;
80936;SDS011;70395;51.382;7.074;2023-12-20T04:10:28;14.67;;;7.10;;
80936;SDS011;70395;51.382;7.074;2023-12-20T04:12:54;11.27;;;6.50;;
80936;SDS011;70395;51.382;7.074;2023-12-20T04:15:20;11.38;;;5.28;;
80936;SDS011;70395;51.382;7.074;2023-12-20T04:17:46;11.20;;;5.40;;
80936;SDS011;70395;51.382;7.074;2023-12-20T04:20:11;11.10;;;6.40;;
80936;SDS011;70395;51.382;7.074;2023-12-20T04:22:37;15.77;;;6.33;;
80936;SDS011;70395;51.382;7.074;2023-12-20T04:25:03;14.90;;;6.53;;
80936;SDS011;70395;51.382;7.074;2023-12-20T04:27:30;18.90;;;6.93;;
80936;SDS011;70395;51.382;7.074;2023-12-20T04:29:56;18.70;;;7.72;;
80936;SDS011;70395;51.382;7.074;2023-12-20T04:32:22;16.03;;;6.77;;
80936;SDS011;70395;51.382;7.074;2023-12-20T04:34:47;13.93;;;6.27;;
80936;SDS011;70395;51.382;7.074;2023-12-20T04:37:13;19.00;;;6.47;;
80936;SDS011;70395;51.382;7.074;2023-12-20T04:39:40;14.20;;;6.80;;
80936;SDS011;70395;51.382;7.074;2023-12-20T04:42:06;12.43;;;6.60;;
80936;SDS011;70395;51.382;7.074;2023-12-20T04:44:32;21.23;;;8.10;;
80936;SDS011;70395;51.382;7.074;2023-12-20T04:46:58;22.03;;;7.23;;
80936;SDS011;70395;51.382;7.074;2023-12-20T04:49:24;14.57;;;6.57;;
80936;SDS011;70395;51.382;7.074;2023-12-20T04:51:50;16.73;;;6.70;;
80936;SDS011;70395;51.382;7.074;2023-12-20T04:54:16;18.07;;;6.40;;
80936;SDS011;70395;51.382;7.074;2023-12-20T04:56:42;18.70;;;7.50;;
80936;SDS011;70395;51.382;7.074;2023-12-20T04:59:08;12.77;;;6.77;;
80936;SDS011;70395;51.382;7.074;2023-12-20T05:01:34;14.53;;;6.20;;
80936;SDS011;70395;51.382;7.074;2023-12-20T05:03:59;17.27;;;7.40;;
80936;SDS011;70395;51.382;7.074;2023-12-20T05:06:25;13.87;;;6.87;;
80936;SDS011;70395;51.382;7.074;2023-12-20T05:08:52;16.03;;;8.43;;
80936;SDS011;70395;51.382;7.074;2023-12-20T05:11:17;13.93;;;7.93;;
80936;SDS011;70395;51.382;7.074;2023-12-20T05:13:46;15.53;;;7.80;;
80936;SDS011;70395;51.382;7.074;2023-12-20T05:16:12;16.23;;;7.63;;
80936;SDS011;70395;51.382;7.074;2023-12-20T05:18:39;13.57;;;7.77;;
80936;SDS011;70395;51.382;7.074;2023-12-20T05:21:05;15.30;;;7.80;;
80936;SDS011;70395;51.382;7.074;2023-12-20T05:23:31;17.00;;;8.75;;
80936;SDS011;70395;51.382;7.074;2023-12-20T05:25:57;22.20;;;8.87;;
80936;SDS011;70395;51.382;7.074;2023-12-20T05:28:24;14.47;;;8.60;;
80936;SDS011;70395;51.382;7.074;2023-12-20T05:30:50;15.88;;;9.02;;
80936;SDS011;70395;51.382;7.074;2023-12-20T05:33:16;14.47;;;8.17;;
80936;SDS011;70395;51.382;7.074;2023-12-20T05:35:42;18.10;;;8.67;;
80936;SDS011;70395;51.382;7.074;2023-12-20T05:38:08;18.17;;;8.97;;
80936;SDS011;70395;51.382;7.074;2023-12-20T05:40:33;19.77;;;8.63;;
80936;SDS011;70395;51.382;7.074;2023-12-20T05:42:59;18.73;;;8.33;;
80936;SDS011;70395;51.382;7.074;2023-12-20T05:45:25;23.23;;;10.43;;
80936;SDS011;70395;51.382;7.074;2023-12-20T05:47:51;20.30;;;8.00;;
80936;SDS011;70395;51.382;7.074;2023-12-20T05:50:17;17.47;;;9.00;;
80936;SDS011;70395;51.382;7.074;2023-12-20T05:52:43;18.77;;;8.70;;
80936;SDS011;70395;51.382;7.074;2023-12-20T05:55:09;22.00;;;9.63;;
80936;SDS011;70395;51.382;7.074;2023-12-20T05:57:35;23.27;;;9.30;;
80936;SDS011;70395;51.382;7.074;2023-12-20T06:00:00;17.70;;;8.83;;
80936;SDS011;70395;51.382;7.074;2023-12-20T06:02:26;14.60;;;7.37;;
80936;SDS011;70395;51.382;7.074;2023-12-20T06:04:52;15.73;;;7.37;;
80936;SDS011;70395;51.382;7.074;2023-12-20T06:07:18;12.03;;;7.03;;
80936;SDS011;70395;51.382;7.074;2023-12-20T06:09:44;18.13;;;8.27;;
80936;SDS011;70395;51.382;7.074;2023-12-20T06:12:10;19.13;;;7.60;;
80936;SDS011;70395;51.382;7.074;2023-12-20T06:14:36;14.23;;;6.63;;
80936;SDS011;70395;51.382;7.074;2023-12-20T06:17:02;14.93;;;5.80;;
80936;SDS011;70395;51.382;7.074;2023-12-20T06:19:28;12.93;;;6.67;;
80936;SDS011;70395;51.382;7.074;2023-12-20T06:21:54;22.73;;;7.60;;
80936;SDS011;70395;51.382;7.074;2023-12-20T06:24:20;12.80;;;6.40;;
80936;SDS011;70395;51.382;7.074;2023-12-20T06:26:46;16.38;;;7.20;;
80936;SDS011;70395;51.382;7.074;2023-12-20T06:29:12;16.00;;;7.30;;
80936;SDS011;70395;51.382;7.074;2023-12-20T06:31:38;17.43;;;6.50;;
80936;SDS011;70395;51.382;7.074;2023-12-20T06:34:04;17.13;;;8.90;;
80936;SDS011;70395;51.382;7.074;2023-12-20T06:36:30;14.07;;;7.23;;
80936;SDS011;70395;51.382;7.074;2023-12-20T06:38:55;22.80;;;7.60;;
80936;SDS011;70395;51.382;7.074;2023-12-20T06:41:21;18.63;;;6.97;;
80936;SDS011;70395;51.382;7.074;2023-12-20T06:43:49;15.73;;;7.07;;
80936;SDS011;70395;51.382;7.074;2023-12-20T06:46:16;13.87;;;6.77;;
80936;SDS011;70395;51.382;7.074;2023-12-20T06:48:42;18.50;;;7.73;;
80936;SDS011;70395;51.382;7.074;2023-12-20T06:51:10;18.27;;;7.13;;
80936;SDS011;70395;51.382;7.074;2023-12-20T06:53:42;18.05;;;7.63;;
80936;SDS011;70395;51.382;7.074;2023-12-20T06:56:08;14.77;;;7.00;;
80936;SDS011;70395;51.382;7.074;2023-12-20T06:58:36;14.50;;;7.43;;
80936;SDS011;70395;51.382;7.074;2023-12-20T07:01:02;18.67;;;7.83;;
80936;SDS011;70395;51.382;7.074;2023-12-20T07:03:29;19.67;;;8.20;;
80936;SDS011;70395;51.382;7.074;2023-12-20T07:05:55;22.90;;;7.37;;
80936;SDS011;70395;51.382;7.074;2023-12-20T07:08:21;23.67;;;8.20;;
80936;SDS011;70395;51.382;7.074;2023-12-20T07:10:47;17.93;;;6.93;;
80936;SDS011;70395;51.382;7.074;2023-12-20T07:13:12;18.50;;;7.00;;
80936;SDS011;70395;51.382;7.074;2023-12-20T07:15:39;12.20;;;6.60;;
80936;SDS011;70395;51.382;7.074;2023-12-20T07:18:05;16.17;;;7.93;;
80936;SDS011;70395;51.382;7.074;2023-12-20T07:20:31;21.33;;;6.70;;
80936;SDS011;70395;51.382;7.074;2023-12-20T07:22:57;12.50;;;6.30;;
80936;SDS011;70395;51.382;7.074;2023-12-20T07:25:23;16.70;;;6.50;;
80936;SDS011;70395;51.382;7.074;2023-12-20T07:27:49;18.90;;;7.27;;
80936;SDS011;70395;51.382;7.074;2023-12-20T07:30:14;14.60;;;6.10;;
80936;SDS011;70395;51.382;7.074;2023-12-20T07:32:40;18.53;;;8.10;;
80936;SDS011;70395;51.382;7.074;2023-12-20T07:35:06;20.60;;;7.50;;
80936;SDS011;70395;51.382;7.074;2023-12-20T07:37:32;11.43;;;7.07;;
80936;SDS011;70395;51.382;7.074;2023-12-20T07:39:58;16.17;;;7.30;;
80936;SDS011;70395;51.382;7.074;2023-12-20T07:42:24;13.53;;;6.90;;
80936;SDS011;70395;51.382;7.074;2023-12-20T07:44:50;18.63;;;7.00;;
80936;SDS011;70395;51.382;7.074;2023-12-20T07:47:16;17.67;;;7.40;;
80936;SDS011;70395;51.382;7.074;2023-12-20T07:49:46;14.10;;;6.60;;
80936;SDS011;70395;51.382;7.074;2023-12-20T07:52:16;16.23;;;7.40;;
80936;SDS011;70395;51.382;7.074;2023-12-20T07:54:44;14.93;;;7.00;;
80936;SDS011;70395;51.382;7.074;2023-12-20T07:57:11;17.30;;;6.87;;
80936;SDS011;70395;51.382;7.074;2023-12-20T07:59:37;18.07;;;7.63;;
80936;SDS011;70395;51.382;7.074;2023-12-20T08:02:03;19.00;;;7.07;;
80936;SDS011;70395;51.382;7.074;2023-12-20T08:04:29;16.67;;;6.60;;
80936;SDS011;70395;51.382;7.074;2023-12-20T08:06:55;15.03;;;6.97;;
80936;SDS011;70395;51.382;7.074;2023-12-20T08:09:21;10.60;;;6.67;;
80936;SDS011;70395;51.382;7.074;2023-12-20T08:11:47;12.77;;;6.67;;
80936;SDS011;70395;51.382;7.074;2023-12-20T08:14:14;17.43;;;5.90;;
80936;SDS011;70395;51.382;7.074;2023-12-20T08:16:40;14.00;;;7.10;;
80936;SDS011;70395;51.382;7.074;2023-12-20T08:19:06;15.80;;;5.90;;
80936;SDS011;70395;51.382;7.074;2023-12-20T08:21:33;11.97;;;6.60;;
80936;SDS011;70395;51.382;7.074;2023-12-20T08:23:59;16.47;;;7.27;;
80936;SDS011;70395;51.382;7.074;2023-12-20T08:26:28;17.03;;;5.90;;
80936;SDS011;70395;51.382;7.074;2023-12-20T08:28:54;13.90;;;7.33;;
80936;SDS011;70395;51.382;7.074;2023-12-20T08:31:20;17.70;;;6.10;;
80936;SDS011;70395;51.382;7.074;2023-12-20T08:33:46;15.30;;;7.10;;
80936;SDS011;70395;51.382;7.074;2023-12-20T08:36:13;9.87;;;6.00;;
80936;SDS011;70395;51.382;7.074;2023-12-20T08:38:40;12.73;;;5.82;;
80936;SDS011;70395;51.382;7.074;2023-12-20T08:41:06;18.30;;;6.73;;
80936;SDS011;70395;51.382;7.074;2023-12-20T08:43:33;17.77;;;7.10;;
80936;SDS011;70395;51.382;7.074;2023-12-20T08:46:00;17.70;;;7.20;;
80936;SDS011;70395;51.382;7.074;2023-12-20T08:48:27;19.97;;;6.10;;
80936;SDS011;70395;51.382;7.074;2023-12-20T08:50:54;14.30;;;6.33;;
80936;SDS011;70395;51.382;7.074;2023-12-20T08:53:19;15.83;;;6.80;;
80936;SDS011;70395;51.382;7.074;2023-12-20T08:55:46;18.97;;;6.00;;
80936;SDS011;70395;51.382;7.074;2023-12-20T08:58:12;17.30;;;6.30;;
80936;SDS011;70395;51.382;7.074;2023-12-20T09:00:39;10.83;;;5.43;;
80936;SDS011;70395;51.382;7.074;2023-12-20T09:03:05;14.70;;;5.67;;
80936;SDS011;70395;51.382;7.074;2023-12-20T09:05:31;14.83;;;7.03;;
80936;SDS011;70395;51.382;7.074;2023-12-20T09:07:57;12.53;;;5.87;;
80936;SDS011;70395;51.382;7.074;2023-12-20T09:10:23;16.37;;;5.97;;
80936;SDS011;70395;51.382;7.074;2023-12-20T09:12:52;14.80;;;5.50;;
80936;SDS011;70395;51.382;7.074;2023-12-20T09:15:25;11.90;;;5.07;;
80936;SDS011;70395;51.382;7.074;2023-12-20T09:17:52;19.37;;;5.47;;
80936;SDS011;70395;51.382;7.074;2023-12-20T09:20:19;10.10;;;5.27;;
80936;SDS011;70395;51.382;7.074;2023-12-20T09:22:45;10.47;;;5.17;;
80936;SDS011;70395;51.382;7.074;2023-12-20T09:25:11;15.00;;;5.73;;
80936;SDS011;70395;51.382;7.074;2023-12-20T09:27:38;9.53;;;4.67;;
80936;SDS011;70395;51.382;7.074;2023-12-20T09:30:04;18.80;;;5.30;;
80936;SDS011;70395;51.382;7.074;2023-12-20T09:32:31;12.20;;;4.30;;
80936;SDS011;70395;51.382;7.074;2023-12-20T09:34:57;8.87;;;4.70;;
80936;SDS011;70395;51.382;7.074;2023-12-20T09:37:27;14.83;;;4.90;;
80936;SDS011;70395;51.382;7.074;2023-12-20T09:39:53;22.93;;;6.50;;
80936;SDS011;70395;51.382;7.074;2023-12-20T09:42:31;11.90;;;4.97;;
80936;SDS011;70395;51.382;7.074;2023-12-20T09:45:08;14.03;;;4.37;;
80936;SDS011;70395;51.382;7.074;2023-12-20T09:47:38;11.20;;;4.80;;
80936;SDS011;70395;51.382;7.074;2023-12-20T09:50:05;23.30;;;4.73;;
80936;SDS011;70395;51.382;7.074;2023-12-20T09:52:32;11.13;;;4.50;;
80936;SDS011;70395;51.382;7.074;2023-12-20T09:55:02;12.67;;;3.90;;
80936;SDS011;70395;51.382;7.074;2023-12-20T09:57:33;12.60;;;4.77;;
80936;SDS011;70395;51.382;7.074;2023-12-20T09:59:59;15.07;;;4.70;;
80936;SDS011;70395;51.382;7.074;2023-12-20T10:02:25;13.47;;;4.70;;
80936;SDS011;70395;51.382;7.074;2023-12-20T10:04:52;10.50;;;4.30;;
80936;SDS011;70395;51.382;7.074;2023-12-20T10:07:19;8.00;;;4.37;;
80936;SDS011;70395;51.382;7.074;2023-12-20T10:09:47;15.10;;;4.70;;
80936;SDS011;70395;51.382;7.074;2023-12-20T10:12:13;14.50;;;4.90;;
80936;SDS011;70395;51.382;7.074;2023-12-20T10:14:39;13.83;;;4.73;;
80936;SDS011;70395;51.382;7.074;2023-12-20T10:17:05;15.87;;;5.00;;
80936;SDS011;70395;51.382;7.074;2023-12-20T10:19:32;10.30;;;3.90;;
80936;SDS011;70395;51.382;7.074;2023-12-20T10:22:03;12.00;;;4.30;;
80936;SDS011;70395;51.382;7.074;2023-12-20T10:24:30;14.17;;;4.33;;
80936;SDS011;70395;51.382;7.074;2023-12-20T10:27:06;18.00;;;5.53;;
80936;SDS011;70395;51.382;7.074;2023-12-20T10:29:36;14.60;;;4.53;;
80936;SDS011;70395;51.382;7.074;2023-12-20T10:32:21;13.13;;;4.73;;
80936;SDS011;70395;51.382;7.074;2023-12-20T10:34:52;16.50;;;4.80;;
80936;SDS011;70395;51.382;7.074;2023-12-20T10:37:20;12.97;;;5.00;;
80936;SDS011;70395;51.382;7.074;2023-12-20T10:39:49;12.10;;;4.27;;
80936;SDS011;70395;51.382;7.074;2023-12-20T10:42:21;18.33;;;5.20;;
80936;SDS011;70395;51.382;7.074;2023-12-20T10:44:48;9.73;;;4.40;;
80936;SDS011;70395;51.382;7.074;2023-12-20T10:47:16;13.60;;;5.30;;
80936;SDS011;70395;51.382;7.074;2023-12-20T10:49:44;14.77;;;4.47;;
80936;SDS011;70395;51.382;7.074;2023-12-20T10:52:11;10.83;;;4.63;;
80936;SDS011;70395;51.382;7.074;2023-12-20T10:54:41;14.77;;;4.80;;
80936;SDS011;70395;51.382;7.074;2023-12-20T10:57:07;8.90;;;4.50;;
80936;SDS011;70395;51.382;7.074;2023-12-20T10:59:36;11.10;;;4.70;;
80936;SDS011;70395;51.382;7.074;2023-12-20T11:02:04;10.80;;;4.07;;
80936;SDS011;70395;51.382;7.074;2023-12-20T11:07:50;11.03;;;4.60;;
80936;SDS011;70395;51.382;7.074;2023-12-20T11:10:31;17.37;;;5.20;;
80936;SDS011;70395;51.382;7.074;2023-12-20T11:13:22;11.33;;;4.30;;
80936;SDS011;70395;51.382;7.074;2023-12-20T11:15:58;13.77;;;5.20;;
80936;SDS011;70395;51.382;7.074;2023-12-20T11:18:30;11.03;;;4.93;;
80936;SDS011;70395;51.382;7.074;2023-12-20T11:21:00;14.37;;;5.03;;
80936;SDS011;70395;51.382;7.074;2023-12-20T11:23:29;14.13;;;4.40;;
80936;SDS011;70395;51.382;7.074;2023-12-20T11:25:59;13.10;;;4.97;;
80936;SDS011;70395;51.382;7.074;2023-12-20T11:28:26;13.87;;;5.17;;
80936;SDS011;70395;51.382;7.074;2023-12-20T11:30:55;15.77;;;3.80;;
80936;SDS011;70395;51.382;7.074;2023-12-20T11:33:26;14.53;;;4.60;;
80936;SDS011;70395;51.382;7.074;2023-12-20T11:36:12;14.03;;;4.07;;
80936;SDS011;70395;51.382;7.074;2023-12-20T11:38:56;11.20;;;4.47;;
80936;SDS011;70395;51.382;7.074;2023-12-20T11:41:25;13.13;;;5.00;;
80936;SDS011;70395;51.382;7.074;2023-12-20T11:43:55;11.47;;;4.87;;
80936;SDS011;70395;51.382;7.074;2023-12-20T11:46:21;12.80;;;4.83;;
80936;SDS011;70395;51.382;7.074;2023-12-20T11:48:48;15.70;;;4.80;;
80936;SDS011;70395;51.382;7.074;2023-12-20T11:51:14;10.67;;;4.60;;
80936;SDS011;70395;51.382;7.074;2023-12-20T11:53:40;15.60;;;4.40;;
80936;SDS011;70395;51.382;7.074;2023-12-20T11:56:09;17.47;;;5.47;;
80936;SDS011;70395;51.382;7.074;2023-12-20T11:58:36;15.20;;;5.33;;
80936;SDS011;70395;51.382;7.074;2023-12-20T12:01:02;13.87;;;4.40;;
80936;SDS011;70395;51.382;7.074;2023-12-20T12:03:29;12.10;;;4.80;;
80936;SDS011;70395;51.382;7.074;2023-12-20T12:05:55;16.33;;;5.10;;
80936;SDS011;70395;51.382;7.074;2023-12-20T12:08:22;14.03;;;4.87;;
80936;SDS011;70395;51.382;7.074;2023-12-20T12:10:48;11.07;;;3.63;;
80936;SDS011;70395;51.382;7.074;2023-12-20T12:13:15;9.40;;;4.20;;
80936;SDS011;70395;51.382;7.074;2023-12-20T12:15:41;12.33;;;5.03;;
80936;SDS011;70395;51.382;7.074;2023-12-20T12:18:08;11.90;;;5.13;;
80936;SDS011;70395;51.382;7.074;2023-12-20T12:20:35;13.63;;;5.87;;
80936;SDS011;70395;51.382;7.074;2023-12-20T12:23:02;11.17;;;4.17;;
80936;SDS011;70395;51.382;7.074;2023-12-20T12:25:32;14.53;;;4.23;;
80936;SDS011;70395;51.382;7.074;2023-12-20T12:28:02;11.80;;;4.63;;
80936;SDS011;70395;51.382;7.074;2023-12-20T12:30:28;12.30;;;4.93;;
80936;SDS011;70395;51.382;7.074;2023-12-20T12:32:55;14.30;;;5.07;;
80936;SDS011;70395;51.382;7.074;2023-12-20T12:35:22;15.70;;;7.10;;
80936;SDS011;70395;51.382;7.074;2023-12-20T12:37:49;16.63;;;5.67;;
80936;SDS011;70395;51.382;7.074;2023-12-20T12:40:16;13.97;;;4.73;;
80936;SDS011;70395;51.382;7.074;2023-12-20T12:42:43;13.60;;;4.57;;
80936;SDS011;70395;51.382;7.074;2023-12-20T12:45:10;13.20;;;4.23;;
80936;SDS011;70395;51.382;7.074;2023-12-20T12:47:37;15.60;;;5.03;;
80936;SDS011;70395;51.382;7.074;2023-12-20T12:50:04;10.93;;;4.80;;
80936;SDS011;70395;51.382;7.074;2023-12-20T12:52:30;12.93;;;5.23;;
80936;SDS011;70395;51.382;7.074;2023-12-20T12:54:56;11.33;;;4.70;;
80936;SDS011;70395;51.382;7.074;2023-12-20T12:57:23;13.23;;;5.03;;
80936;SDS011;70395;51.382;7.074;2023-12-20T12:59:49;9.73;;;5.30;;
80936;SDS011;70395;51.382;7.074;2023-12-20T13:02:15;11.67;;;5.43;;
80936;SDS011;70395;51.382;7.074;2023-12-20T13:04:41;12.43;;;5.30;;
80936;SDS011;70395;51.382;7.074;2023-12-20T13:07:08;11.10;;;5.27;;
80936;SDS011;70395;51.382;7.074;2023-12-20T13:09:37;10.63;;;5.13;;
80936;SDS011;70395;51.382;7.074;2023-12-20T13:12:07;9.93;;;5.00;;
80936;SDS011;70395;51.382;7.074;2023-12-20T13:14:33;13.70;;;6.00;;
80936;SDS011;70395;51.382;7.074;2023-12-20T13:17:02;10.43;;;4.80;;
80936;SDS011;70395;51.382;7.074;2023-12-20T13:19:29;13.43;;;5.00;;
80936;SDS011;70395;51.382;7.074;2023-12-20T13:21:55;9.60;;;4.70;;
80936;SDS011;70395;51.382;7.074;2023-12-20T13:24:23;13.03;;;5.23;;
80936;SDS011;70395;51.382;7.074;2023-12-20T13:26:48;11.60;;;4.80;;
80936;SDS011;70395;51.382;7.074;2023-12-20T13:29:14;13.10;;;4.47;;
80936;SDS011;70395;51.382;7.074;2023-12-20T13:31:40;8.67;;;4.40;;
80936;SDS011;70395;51.382;7.074;2023-12-20T13:34:07;9.33;;;4.17;;
80936;SDS011;70395;51.382;7.074;2023-12-20T13:36:33;13.63;;;5.13;;
80936;SDS011;70395;51.382;7.074;2023-12-20T13:39:00;11.73;;;5.07;;
80936;SDS011;70395;51.382;7.074;2023-12-20T13:41:27;15.97;;;4.90;;
80936;SDS011;70395;51.382;7.074;2023-12-20T13:43:52;10.00;;;4.40;;
80936;SDS011;70395;51.382;7.074;2023-12-20T13:46:19;13.47;;;5.40;;
80936;SDS011;70395;51.382;7.074;2023-12-20T13:48:45;9.47;;;5.67;;
80936;SDS011;70395;51.382;7.074;2023-12-20T13:51:11;9.87;;;5.50;;
80936;SDS011;70395;51.382;7.074;2023-12-20T13:53:36;9.43;;;5.50;;
80936;SDS011;70395;51.382;7.074;2023-12-20T13:56:03;12.33;;;6.60;;
80936;SDS011;70395;51.382;7.074;2023-12-20T13:58:30;9.50;;;5.50;;
80936;SDS011;70395;51.382;7.074;2023-12-20T14:00:56;12.97;;;5.60;;
80936;SDS011;70395;51.382;7.074;2023-12-20T14:03:21;15.17;;;7.50;;
80936;SDS011;70395;51.382;7.074;2023-12-20T14:05:47;9.90;;;5.20;;
80936;SDS011;70395;51.382;7.074;2023-12-20T14:08:13;12.37;;;6.10;;
80936;SDS011;70395;51.382;7.074;2023-12-20T14:10:39;9.37;;;5.10;;
80936;SDS011;70395;51.382;7.074;2023-12-20T14:13:05;8.90;;;5.13;;
80936;SDS011;70395;51.382;7.074;2023-12-20T14:15:31;8.43;;;5.67;;
80936;SDS011;70395;51.382;7.074;2023-12-20T14:18:03;9.10;;;5.10;;
80936;SDS011;70395;51.382;7.074;2023-12-20T14:20:33;12.47;;;5.70;;
80936;SDS011;70395;51.382;7.074;2023-12-20T14:23:00;8.77;;;5.90;;
80936;SDS011;70395;51.382;7.074;2023-12-20T14:25:27;11.13;;;6.57;;
80936;SDS011;70395;51.382;7.074;2023-12-20T14:27:53;11.83;;;6.53;;
80936;SDS011;70395;51.382;7.074;2023-12-20T14:30:19;12.10;;;7.17;;
80936;SDS011;70395;51.382;7.074;2023-12-20T14:32:45;10.37;;;6.77;;
80936;SDS011;70395;51.382;7.074;2023-12-20T14:35:12;10.70;;;6.50;;